createdAt,value
2019-04-29T00:01:46.525Z,18.77
2019-04-29T00:04:18.511Z,15.03
2019-04-29T00:06:50.770Z,19.77
2019-04-29T00:09:23.073Z,18.57
2019-04-29T00:11:54.719Z,19.40
2019-04-29T00:14:28.115Z,15.98
2019-04-29T00:17:06.334Z,16.07
2019-04-29T00:19:42.695Z,16.65
2019-04-29T00:22:14.588Z,16.87
2019-04-29T00:24:46.725Z,14.60
2019-04-29T00:27:18.778Z,14.43
2019-04-29T00:29:50.656Z,13.03
2019-04-29T00:32:25.479Z,11.28
2019-04-29T00:34:57.352Z,9.93
2019-04-29T00:37:39.869Z,11.38
2019-04-29T00:40:29.863Z,10.45
2019-04-29T00:43:09.399Z,11.10
2019-04-29T00:45:41.468Z,11.20
2019-04-29T00:48:13.108Z,13.10
2019-04-29T00:50:44.770Z,11.78
2019-04-29T00:53:16.750Z,14.23
2019-04-29T00:55:49.843Z,10.15
2019-04-29T00:58:21.998Z,14.05
2019-04-29T01:00:54.062Z,12.05
2019-04-29T01:03:26.043Z,13.08
2019-04-29T01:05:57.775Z,13.50
2019-04-29T01:08:29.872Z,13.85
2019-04-29T01:11:01.530Z,13.83
2019-04-29T01:13:33.294Z,14.30
2019-04-29T01:16:04.949Z,12.45
2019-04-29T01:18:36.813Z,13.95
2019-04-29T01:21:08.625Z,17.20
2019-04-29T01:23:40.542Z,20.37
2019-04-29T01:26:16.837Z,15.55
2019-04-29T01:28:56.456Z,12.25
2019-04-29T01:31:30.097Z,11.30
2019-04-29T01:34:03.419Z,10.43
2019-04-29T01:36:37.148Z,10.50
2019-04-29T01:39:11.656Z,10.03
2019-04-29T01:41:44.969Z,15.00
2019-04-29T01:44:18.592Z,8.80
2019-04-29T01:46:50.766Z,13.50
2019-04-29T01:49:22.525Z,12.50
2019-04-29T01:51:54.497Z,10.48
2019-04-29T01:54:26.546Z,10.98
2019-04-29T01:56:58.513Z,9.43
2019-04-29T01:59:30.269Z,11.45
2019-04-29T02:02:02.455Z,13.32
2019-04-29T02:04:34.590Z,14.58
2019-04-29T02:07:06.695Z,15.78
2019-04-29T02:09:40.299Z,18.37
2019-04-29T02:12:12.369Z,15.72
2019-04-29T02:14:44.639Z,15.93
2019-04-29T02:17:16.724Z,16.82
2019-04-29T02:19:48.551Z,13.25
2019-04-29T02:22:28.411Z,14.50
2019-04-29T02:25:02.125Z,14.45
2019-04-29T02:27:34.007Z,17.48
2019-04-29T02:30:07.587Z,14.58
2019-04-29T02:32:39.545Z,12.37
2019-04-29T02:35:11.715Z,13.65
2019-04-29T02:37:45.220Z,20.60
2019-04-29T02:40:34.714Z,18.57
2019-04-29T02:43:08.419Z,18.07
2019-04-29T02:45:40.485Z,17.20
2019-04-29T02:48:12.458Z,15.78
2019-04-29T02:50:44.145Z,13.58
2019-04-29T02:53:15.676Z,16.77
2019-04-29T02:55:49.482Z,14.55
2019-04-29T02:58:23.174Z,15.83
2019-04-29T03:01:13.603Z,13.28
2019-04-29T03:03:47.397Z,15.88
2019-04-29T03:06:19.492Z,15.18
2019-04-29T03:08:51.230Z,16.25
2019-04-29T03:11:24.425Z,14.93
2019-04-29T03:13:56.698Z,17.15
2019-04-29T03:16:28.681Z,13.43
2019-04-29T03:19:05.244Z,14.53
2019-04-29T03:21:38.708Z,13.68
2019-04-29T03:24:10.498Z,15.80
2019-04-29T03:26:42.348Z,14.20
2019-04-29T03:29:23.581Z,14.33
2019-04-29T03:31:56.651Z,15.03
2019-04-29T03:34:28.415Z,17.42
2019-04-29T03:37:00.065Z,16.82
2019-04-29T03:39:32.035Z,15.50
2019-04-29T03:42:07.275Z,17.20
2019-04-29T03:44:37.380Z,15.20
2019-04-29T03:47:09.775Z,18.20
2019-04-29T03:49:41.643Z,17.07
2019-04-29T03:52:13.811Z,16.15
2019-04-29T03:54:45.884Z,15.32
2019-04-29T03:57:18.658Z,22.42
2019-04-29T03:59:50.733Z,13.18
2019-04-29T04:02:24.438Z,15.30
2019-04-29T04:05:07.057Z,18.37
2019-04-29T04:07:40.647Z,14.30
2019-04-29T04:10:13.248Z,14.07
2019-04-29T04:12:44.990Z,20.70
2019-04-29T04:15:17.284Z,15.78
2019-04-29T04:18:06.041Z,14.65
2019-04-29T04:20:38.313Z,13.93
2019-04-29T04:23:10.685Z,12.73
2019-04-29T04:25:42.762Z,13.28
2019-04-29T04:28:14.702Z,15.32
2019-04-29T04:30:46.564Z,11.75
2019-04-29T04:33:18.790Z,15.58
2019-04-29T04:35:50.871Z,13.00
2019-04-29T04:38:22.689Z,15.23
2019-04-29T04:41:05.594Z,13.98
2019-04-29T04:43:37.588Z,15.93
2019-04-29T04:46:10.366Z,15.23
2019-04-29T04:48:42.317Z,11.28
2019-04-29T04:51:14.314Z,12.15
2019-04-29T04:53:46.979Z,12.55
2019-04-29T04:56:19.133Z,13.03
2019-04-29T04:58:50.808Z,13.50
2019-04-29T05:01:22.883Z,11.88
2019-04-29T05:03:54.844Z,13.32
2019-04-29T05:06:26.792Z,12.00
2019-04-29T05:08:59.096Z,15.50
2019-04-29T05:11:31.081Z,18.17
2019-04-29T05:14:02.685Z,14.30
2019-04-29T05:16:34.758Z,12.65
2019-04-29T05:19:06.742Z,14.60
2019-04-29T05:21:38.828Z,11.85
2019-04-29T05:24:10.673Z,16.57
2019-04-29T05:26:42.825Z,20.97
2019-04-29T05:29:14.910Z,11.93
2019-04-29T05:31:46.754Z,13.65
2019-04-29T05:34:19.558Z,16.62
2019-04-29T05:36:52.851Z,16.80
2019-04-29T05:39:26.565Z,18.73
2019-04-29T05:41:59.009Z,15.95
2019-04-29T05:44:33.452Z,15.18
2019-04-29T05:47:17.838Z,13.30
2019-04-29T05:50:07.197Z,16.87
2019-04-29T05:52:57.234Z,19.27
2019-04-29T05:55:29.251Z,24.20
2019-04-29T05:58:12.794Z,21.10
2019-04-29T06:00:46.380Z,26.90
2019-04-29T06:03:18.238Z,31.77
2019-04-29T06:05:50.048Z,46.15
2019-04-29T06:08:22.070Z,36.63
2019-04-29T06:10:53.747Z,35.78
2019-04-29T06:13:25.915Z,33.55
2019-04-29T06:15:57.756Z,23.57
2019-04-29T06:18:29.745Z,28.67
2019-04-29T06:21:08.934Z,30.00
2019-04-29T06:23:35.142Z,27.90
2019-04-29T06:26:07.283Z,22.20
2019-04-29T06:28:40.085Z,22.63
2019-04-29T06:31:12.230Z,29.95
2019-04-29T06:33:44.296Z,26.48
2019-04-29T06:36:15.947Z,24.00
2019-04-29T06:38:48.032Z,28.38
2019-04-29T06:41:21.294Z,30.48
2019-04-29T06:44:00.637Z,24.95
2019-04-29T06:46:30.725Z,29.12
2019-04-29T06:49:10.091Z,26.42
2019-04-29T06:51:36.242Z,29.70
2019-04-29T06:54:08.109Z,24.90
2019-04-29T06:56:39.988Z,26.70
2019-04-29T06:59:13.881Z,26.12
2019-04-29T07:01:45.468Z,28.12
2019-04-29T07:04:17.526Z,29.77
2019-04-29T07:06:57.069Z,28.27
2019-04-29T07:09:22.791Z,31.73
2019-04-29T07:12:01.116Z,26.23
2019-04-29T07:14:32.799Z,29.27
2019-04-29T07:17:05.729Z,24.43
2019-04-29T07:19:35.954Z,25.23
2019-04-29T07:22:07.936Z,24.30
2019-04-29T07:24:39.887Z,20.43
2019-04-29T07:27:11.868Z,23.02
2019-04-29T07:29:44.858Z,18.77
2019-04-29T07:32:16.821Z,20.02
2019-04-29T07:34:48.770Z,20.57
2019-04-29T07:37:20.649Z,25.17
2019-04-29T07:39:52.413Z,22.75
2019-04-29T07:42:30.385Z,20.82
2019-04-29T07:45:15.885Z,27.48
2019-04-29T07:47:56.697Z,26.80
2019-04-29T07:50:26.603Z,24.67
2019-04-29T07:52:57.226Z,22.80
2019-04-29T07:55:30.718Z,28.05
2019-04-29T07:58:02.594Z,27.30
2019-04-29T08:00:35.635Z,29.72
2019-04-29T08:03:08.365Z,31.30
2019-04-29T08:05:40.646Z,25.05
2019-04-29T08:08:16.731Z,29.23
2019-04-29T08:10:56.168Z,22.80
2019-04-29T08:15:53.405Z,24.45
2019-04-29T08:18:25.278Z,22.10
2019-04-29T08:20:57.047Z,18.80
2019-04-29T08:23:33.057Z,20.05
2019-04-29T08:26:04.115Z,17.40
2019-04-29T08:28:35.705Z,15.30
2019-04-29T08:31:08.253Z,13.65
2019-04-29T08:33:42.415Z,16.40
2019-04-29T08:36:13.241Z,17.62
2019-04-29T08:38:44.902Z,16.42
2019-04-29T08:41:21.536Z,18.77
2019-04-29T08:43:52.523Z,12.20
2019-04-29T08:46:30.096Z,18.73
2019-04-29T08:49:06.043Z,15.65
2019-04-29T08:51:35.410Z,12.68
2019-04-29T08:54:07.384Z,14.23
2019-04-29T08:56:42.543Z,10.32
2019-04-29T08:59:12.694Z,14.78
2019-04-29T09:01:44.733Z,13.70
2019-04-29T09:04:16.491Z,8.43
2019-04-29T09:06:48.616Z,8.45
2019-04-29T09:09:28.983Z,7.72
2019-04-29T09:11:54.070Z,8.83
2019-04-29T09:14:25.922Z,11.12
2019-04-29T09:16:57.883Z,10.35
2019-04-29T09:19:30.055Z,9.10
2019-04-29T09:22:03.533Z,12.68
2019-04-29T09:24:37.257Z,11.12
2019-04-29T09:27:17.003Z,9.30
2019-04-29T09:29:54.197Z,11.63
2019-04-29T09:32:23.629Z,11.90
2019-04-29T09:34:55.648Z,11.35
2019-04-29T09:37:28.872Z,9.50
2019-04-29T09:40:00.926Z,10.40
2019-04-29T09:42:50.212Z,13.30
2019-04-29T09:45:39.760Z,10.90
2019-04-29T09:48:11.791Z,13.45
2019-04-29T09:50:43.484Z,13.60
2019-04-29T09:53:15.366Z,10.95
2019-04-29T09:55:48.549Z,11.60
2019-04-29T09:58:20.216Z,13.68
2019-04-29T10:01:13.861Z,11.12
2019-04-29T10:04:02.837Z,13.72
2019-04-29T10:06:39.014Z,9.83
2019-04-29T10:09:11.679Z,13.38
2019-04-29T10:11:43.861Z,11.18
2019-04-29T10:14:16.035Z,14.07
2019-04-29T10:17:05.814Z,13.13
2019-04-29T10:19:54.571Z,32.67
2019-04-29T10:22:26.539Z,41.10
2019-04-29T10:24:58.300Z,45.60
2019-04-29T10:27:30.575Z,45.40
2019-04-29T10:30:02.438Z,42.03
2019-04-29T10:32:37.852Z,40.48
2019-04-29T10:35:10.704Z,49.53
2019-04-29T10:37:42.720Z,39.37
2019-04-29T10:40:28.223Z,42.48
2019-04-29T10:43:04.382Z,35.40
2019-04-29T10:45:43.817Z,34.10
2019-04-29T10:48:17.321Z,40.33
2019-04-29T10:53:23.033Z,40.70
2019-04-29T10:55:55.045Z,40.50
2019-04-29T10:58:31.185Z,40.25
2019-04-29T11:01:41.688Z,43.23
2019-04-29T11:04:14.792Z,41.98
2019-04-29T11:06:46.853Z,40.03
2019-04-29T11:09:22.899Z,43.50
2019-04-29T11:11:54.552Z,41.30
2019-04-29T11:14:26.639Z,43.63
2019-04-29T11:16:58.604Z,41.30
2019-04-29T11:19:30.362Z,37.63
2019-04-29T11:22:03.311Z,35.00
2019-04-29T11:24:39.931Z,37.58
2019-04-29T11:27:13.462Z,27.45
2019-04-29T11:29:45.498Z,24.27
2019-04-29T11:32:24.783Z,28.10
2019-04-29T11:35:06.191Z,23.27
2019-04-29T11:37:38.184Z,25.75
2019-04-29T11:40:10.335Z,19.27
2019-04-29T11:42:42.212Z,17.35
2019-04-29T11:45:14.164Z,16.10
2019-04-29T11:47:46.349Z,20.17
2019-04-29T11:50:27.048Z,14.78
2019-04-29T11:52:59.290Z,14.23
2019-04-29T11:55:31.336Z,16.15
2019-04-29T11:58:14.051Z,14.78
2019-04-29T12:01:08.581Z,17.52
2019-04-29T12:03:42.630Z,16.00
2019-04-29T12:06:16.361Z,20.15
2019-04-29T12:08:53.239Z,15.75
2019-04-29T12:11:22.991Z,18.50
2019-04-29T12:14:08.796Z,19.60
2019-04-29T12:16:42.284Z,21.00
2019-04-29T12:19:17.116Z,20.02
2019-04-29T12:21:49.768Z,16.75
2019-04-29T12:24:21.440Z,20.02
2019-04-29T12:26:53.485Z,31.82
2019-04-29T12:29:25.609Z,34.30
2019-04-29T12:32:02.020Z,42.25
2019-04-29T12:34:54.199Z,32.17
2019-04-29T12:37:40.374Z,26.97
2019-04-29T12:40:30.561Z,21.02
2019-04-29T12:43:20.224Z,25.23
2019-04-29T12:45:54.077Z,24.75
2019-04-29T12:48:26.257Z,21.77
2019-04-29T12:50:58.293Z,18.48
2019-04-29T12:53:30.441Z,19.05
2019-04-29T12:56:02.527Z,26.48
2019-04-29T12:58:34.397Z,19.92
2019-04-29T13:01:20.108Z,19.90
2019-04-29T13:04:10.738Z,20.77
2019-04-29T13:06:50.986Z,21.85
2019-04-29T13:09:34.996Z,17.67
2019-04-29T13:12:19.130Z,20.65
2019-04-29T13:15:01.817Z,16.97
2019-04-29T13:17:26.471Z,17.65
2019-04-29T13:20:02.553Z,16.02
2019-04-29T13:22:35.200Z,15.45
2019-04-29T13:25:08.805Z,14.83
2019-04-29T13:27:40.599Z,15.63
2019-04-29T13:30:16.239Z,15.85
2019-04-29T13:32:47.046Z,19.75
2019-04-29T13:35:19.224Z,17.40
2019-04-29T13:37:50.883Z,14.53
2019-04-29T13:40:22.948Z,15.18
2019-04-29T13:42:54.795Z,14.40
2019-04-29T13:45:34.666Z,15.43
2019-04-29T13:48:10.911Z,15.63
2019-04-29T13:50:47.373Z,14.55
2019-04-29T13:53:19.689Z,14.18
2019-04-29T13:56:09.910Z,16.48
2019-04-29T13:58:27.046Z,16.05
2019-04-29T14:01:20.506Z,12.85
2019-04-29T14:03:46.320Z,15.03
2019-04-29T14:06:18.663Z,16.07
2019-04-29T14:08:49.316Z,11.85
2019-04-29T14:11:21.869Z,14.53
2019-04-29T14:13:56.084Z,14.75
2019-04-29T14:16:28.250Z,14.47
2019-04-29T14:19:00.672Z,15.55
2019-04-29T14:21:32.575Z,16.07
2019-04-29T14:24:04.253Z,16.23
2019-04-29T14:26:37.091Z,15.08
2019-04-29T14:29:10.128Z,12.75
2019-04-29T14:31:42.194Z,12.37
2019-04-29T14:34:34.966Z,18.07
2019-04-29T14:37:21.425Z,12.85
2019-04-29T14:39:39.599Z,12.13
2019-04-29T14:42:30.273Z,13.80
2019-04-29T14:45:07.288Z,16.70
2019-04-29T14:47:52.870Z,13.58
2019-04-29T14:50:24.940Z,16.27
2019-04-29T14:52:57.109Z,18.23
2019-04-29T14:55:35.143Z,13.75
2019-04-29T14:58:06.989Z,15.72
2019-04-29T15:00:50.949Z,13.43
2019-04-29T15:03:24.806Z,14.70
2019-04-29T15:05:56.819Z,14.33
2019-04-29T15:08:32.070Z,14.70
2019-04-29T15:11:04.094Z,11.70
2019-04-29T15:13:35.931Z,15.93
2019-04-29T15:16:14.011Z,13.00
2019-04-29T15:18:50.325Z,13.65
2019-04-29T15:21:42.552Z,12.50
2019-04-29T15:24:13.634Z,13.50
2019-04-29T15:26:45.798Z,13.18
2019-04-29T15:29:20.323Z,11.05
2019-04-29T15:32:11.218Z,12.43
2019-04-29T15:34:43.935Z,15.25
2019-04-29T15:37:16.384Z,21.60
2019-04-29T15:39:48.367Z,15.18
2019-04-29T15:42:20.094Z,15.23
2019-04-29T15:44:57.028Z,15.38
2019-04-29T15:47:31.298Z,18.55
2019-04-29T15:50:17.392Z,17.02
2019-04-29T15:52:35.547Z,16.77
2019-04-29T15:55:07.408Z,17.30
2019-04-29T15:57:39.870Z,19.37
2019-04-29T16:00:21.269Z,17.75
2019-04-29T16:02:46.185Z,16.60
2019-04-29T16:05:54.042Z,16.02
2019-04-29T16:08:30.547Z,14.75
2019-04-29T16:11:40.177Z,18.42
2019-04-29T16:14:20.845Z,19.17
2019-04-29T16:16:52.925Z,18.67
2019-04-29T16:19:24.591Z,18.05
2019-04-29T16:21:58.192Z,22.82
2019-04-29T16:24:38.517Z,19.52
2019-04-29T16:27:10.240Z,18.60
2019-04-29T16:29:46.051Z,17.87
2019-04-29T16:32:30.114Z,20.10
2019-04-29T16:35:02.383Z,19.95
2019-04-29T16:37:33.978Z,20.80
2019-04-29T16:40:08.139Z,20.25
2019-04-29T16:42:53.639Z,19.02
2019-04-29T16:45:44.202Z,21.52
2019-04-29T16:48:17.233Z,20.52
2019-04-29T16:50:50.525Z,21.73
2019-04-29T16:53:40.725Z,22.48
2019-04-29T16:56:35.318Z,21.23
2019-04-29T16:59:17.979Z,21.30
2019-04-29T17:02:09.976Z,21.77
2019-04-29T17:04:46.134Z,22.55
2019-04-29T17:07:19.326Z,23.87
2019-04-29T17:09:59.079Z,20.00
2019-04-29T17:12:36.239Z,22.17
2019-04-29T17:15:23.829Z,22.65
2019-04-29T17:17:42.225Z,23.92
2019-04-29T17:20:14.923Z,24.00
2019-04-29T17:22:46.680Z,22.73
2019-04-29T17:25:18.910Z,21.65
2019-04-29T17:28:11.798Z,21.55
2019-04-29T17:30:48.522Z,22.20
2019-04-29T17:33:28.031Z,22.17
2019-04-29T17:35:58.046Z,22.42
2019-04-29T17:38:30.399Z,22.65
2019-04-29T17:41:02.385Z,24.23
2019-04-29T17:43:42.943Z,24.05
2019-04-29T17:46:32.225Z,20.65
2019-04-29T17:49:22.150Z,22.65
2019-04-29T17:52:01.439Z,22.73
2019-04-29T17:54:32.793Z,22.82
2019-04-29T17:57:25.611Z,21.05
2019-04-29T18:00:00.578Z,21.55
2019-04-29T18:02:52.454Z,21.45
2019-04-29T18:05:26.910Z,24.67
2019-04-29T18:08:08.736Z,21.68
2019-04-29T18:10:48.360Z,21.75
2019-04-29T18:13:24.042Z,21.33
2019-04-29T18:16:01.639Z,18.98
2019-04-29T18:18:30.525Z,18.82
2019-04-29T18:21:06.483Z,18.95
2019-04-29T18:23:47.005Z,18.32
2019-04-29T18:26:23.108Z,19.77
2019-04-29T18:28:56.877Z,19.73
2019-04-29T18:31:31.766Z,20.80
2019-04-29T18:34:05.580Z,23.10
2019-04-29T18:36:38.144Z,21.27
2019-04-29T18:39:11.633Z,20.15
2019-04-29T18:41:44.809Z,19.12
2019-04-29T18:44:19.600Z,20.20
2019-04-29T18:46:54.078Z,22.02
2019-04-29T18:49:27.663Z,23.55
2019-04-29T18:52:02.269Z,23.65
2019-04-29T18:54:33.366Z,21.75
2019-04-29T18:57:05.959Z,24.98
2019-04-29T18:59:38.105Z,24.82
2019-04-29T19:02:09.970Z,22.40
2019-04-29T19:04:48.519Z,20.62
2019-04-29T19:07:17.068Z,21.73
2019-04-29T19:09:48.808Z,21.12
2019-04-29T19:12:21.116Z,22.07
2019-04-29T19:14:53.267Z,22.27
2019-04-29T19:17:25.767Z,22.17
2019-04-29T19:19:57.691Z,22.00
2019-04-29T19:22:29.757Z,19.80
2019-04-29T19:25:01.738Z,21.25
2019-04-29T19:27:37.107Z,19.98
2019-04-29T19:30:09.086Z,21.80
2019-04-29T19:32:41.407Z,20.75
2019-04-29T19:35:16.801Z,26.17
2019-04-29T19:37:48.632Z,23.57
2019-04-29T19:40:20.902Z,22.35
2019-04-29T19:42:52.855Z,22.37
2019-04-29T19:45:25.021Z,25.32
2019-04-29T19:47:56.781Z,21.45
2019-04-29T19:50:28.965Z,22.75
2019-04-29T19:53:05.037Z,23.02
2019-04-29T19:55:43.976Z,20.82
2019-04-29T19:58:11.804Z,23.10
2019-04-29T20:00:41.970Z,21.90
2019-04-29T20:03:22.789Z,23.57
2019-04-29T20:05:49.835Z,22.73
2019-04-29T20:11:01.020Z,23.40
2019-04-29T20:13:31.729Z,25.00
2019-04-29T20:16:24.853Z,20.75
2019-04-29T20:19:01.848Z,22.65
2019-04-29T20:21:35.950Z,26.57
2019-04-29T20:24:09.793Z,23.02
2019-04-29T20:26:43.949Z,23.65
2019-04-29T20:29:15.936Z,24.60
2019-04-29T20:31:52.882Z,27.25
2019-04-29T20:34:24.630Z,26.80
2019-04-29T20:36:56.136Z,26.02
2019-04-29T20:39:28.375Z,24.25
2019-04-29T20:42:01.058Z,27.98
2019-04-29T20:44:36.597Z,26.40
2019-04-29T20:47:19.706Z,31.70
2019-04-29T20:49:41.151Z,28.20
2019-04-29T20:52:20.328Z,31.17
2019-04-29T20:54:56.199Z,33.13
2019-04-29T20:57:22.196Z,30.70
2019-04-29T20:59:55.092Z,30.77
2019-04-29T21:02:33.766Z,34.25
2019-04-29T21:05:01.508Z,31.52
2019-04-29T21:07:33.652Z,32.80
2019-04-29T21:10:08.569Z,36.38
2019-04-29T21:12:59.496Z,32.30
2019-04-29T21:15:36.301Z,34.55
2019-04-29T21:18:10.340Z,35.63
2019-04-29T21:20:41.724Z,36.85
2019-04-29T21:23:13.600Z,37.20
2019-04-29T21:25:46.077Z,39.80
2019-04-29T21:28:18.349Z,37.20
2019-04-29T21:30:50.112Z,37.58
2019-04-29T21:33:22.056Z,39.05
2019-04-29T21:35:58.852Z,42.03
2019-04-29T21:38:35.323Z,40.48
2019-04-29T21:41:15.498Z,44.35
2019-04-29T21:43:53.295Z,41.85
2019-04-29T21:46:27.821Z,46.28
2019-04-29T21:48:55.685Z,44.05
2019-04-29T21:51:27.517Z,52.55
2019-04-29T21:53:59.380Z,51.58
2019-04-29T21:56:31.468Z,46.40
2019-04-29T21:59:09.188Z,51.13
2019-04-29T22:01:38.061Z,54.23
2019-04-29T22:04:10.231Z,54.45
2019-04-29T22:06:42.177Z,60.23
2019-04-29T22:09:15.930Z,62.17
2019-04-29T22:11:48.885Z,62.58
2019-04-29T22:14:20.956Z,59.65
2019-04-29T22:16:54.362Z,61.20
2019-04-29T22:19:28.133Z,59.60
2019-04-29T22:22:01.501Z,72.53
2019-04-29T22:24:33.207Z,65.55
2019-04-29T22:27:08.167Z,70.80
2019-04-29T22:29:39.450Z,68.87
2019-04-29T22:32:14.675Z,69.67
2019-04-29T22:34:45.281Z,70.70
2019-04-29T22:37:17.749Z,78.70
2019-04-29T22:39:50.846Z,71.72
2019-04-29T22:42:30.050Z,72.55
2019-04-29T22:45:01.613Z,75.20
2019-04-29T22:47:33.476Z,76.65
2019-04-29T22:50:06.279Z,83.17
2019-04-29T22:52:38.446Z,85.95
2019-04-29T22:55:11.627Z,84.72
2019-04-29T22:57:44.914Z,82.17
2019-04-29T23:02:50.193Z,83.80
2019-04-29T23:05:23.609Z,75.87
2019-04-29T23:07:57.064Z,84.58
2019-04-29T23:10:28.837Z,87.95
2019-04-29T23:13:00.816Z,84.60
2019-04-29T23:15:33.275Z,85.47
2019-04-29T23:18:06.184Z,73.52
2019-04-29T23:20:51.751Z,73.62
2019-04-29T23:23:33.756Z,89.15
2019-04-29T23:26:04.166Z,71.90
2019-04-29T23:28:36.774Z,72.50
2019-04-29T23:31:08.899Z,72.65
2019-04-29T23:33:40.891Z,72.20
2019-04-29T23:36:14.111Z,67.03
2019-04-29T23:38:46.379Z,61.23
2019-04-29T23:41:18.148Z,70.35
2019-04-29T23:43:49.999Z,67.78
2019-04-29T23:46:22.175Z,71.25
2019-04-29T23:48:56.491Z,77.22
2019-04-29T23:51:34.577Z,75.10
2019-04-29T23:54:05.855Z,69.53
2019-04-29T23:56:42.834Z,75.60
2019-04-29T23:59:29.632Z,74.80
